Time;durP1;ratioP1;P1;durP2;ratioP2;P2;SDS_P1;SDS_P2;PMS_P1;PMS_P2;Temp;Humidity;BMP_temperature;BMP_pressure;BME280_temperature;BME280_humidity;BME280_pressure;Samples;Min_cycle;Max_cycle;Signal;HPM_P1;HPM_P2
2022/03/18 00:00:25;;;;;;;;;32.00;26.75;;;;;10.86;54.00;103230.47;5060341;28;45365;-75
2022/03/18 00:02:54;;;;;;;;;30.75;25.25;;;;;10.88;54.31;103234.94;5058449;28;45581;-71
2022/03/18 00:05:27;;;;;;;;;26.00;25.25;;;;;10.88;53.97;103234.06;5059830;28;45383;-75
2022/03/18 00:07:56;;;;;;;;;25.25;21.00;;;;;10.88;53.90;103237.56;5060271;28;45428;-72
2022/03/18 00:10:23;;;;;;;;;28.50;23.75;;;;;10.80;54.05;103212.78;5059745;28;45774;-73
2022/03/18 00:12:53;;;;;;;;;29.25;25.25;;;;;10.88;53.96;103226.19;5059245;28;45772;-72
2022/03/18 00:15:23;;;;;;;;;23.75;23.50;;;;;10.89;53.80;103242.00;5059951;28;45330;-73
2022/03/18 00:17:49;;;;;;;;;19.25;17.50;;;;;10.79;54.07;103221.47;5059402;28;45828;-74
2022/03/18 00:20:15;;;;;;;;;30.75;25.25;;;;;10.76;53.90;103218.72;5058992;28;46082;-74
2022/03/18 00:22:42;;;;;;;;;26.00;22.00;;;;;10.82;53.75;103225.13;5058544;28;45507;-75
2022/03/18 00:25:09;;;;;;;;;24.00;23.00;;;;;10.50;53.83;103175.72;5058718;28;45386;-74
2022/03/18 00:27:35;;;;;;;;;24.25;20.50;;;;;10.54;53.77;103189.00;5059055;28;45269;-75
2022/03/18 00:30:03;;;;;;;;;29.75;24.75;;;;;10.37;53.49;103162.13;5058286;28;46245;-73
2022/03/18 00:32:28;;;;;;;;;29.00;24.25;;;;;10.56;54.04;103205.69;5058433;28;45393;-75
2022/03/18 00:34:54;;;;;;;;;27.50;23.25;;;;;10.62;53.96;103223.41;5059848;28;45354;-73
2022/03/18 00:37:20;;;;;;;;;26.75;21.00;;;;;10.61;54.08;103221.63;5058974;28;45729;-74
2022/03/18 00:39:46;;;;;;;;;29.50;22.50;;;;;10.60;53.90;103228.56;5058270;28;45523;-75
2022/03/18 00:42:12;;;;;;;;;27.75;22.75;;;;;10.70;54.07;103242.06;5058189;28;45527;-74
2022/03/18 00:44:39;;;;;;;;;22.75;22.75;;;;;10.71;53.55;103241.25;5058203;28;45334;-74
2022/03/18 00:51:59;;;;;;;;;22.50;21.25;;;;;10.71;53.87;103243.84;5057247;28;45501;-75
2022/03/18 00:52:37;;;;;;;;;30.00;25.00;;;;;10.70;53.90;103239.44;5058222;28;45371;-75
2022/03/18 00:55:03;;;;;;;;;23.25;19.75;;;;;10.55;53.45;103222.25;5057923;27;45470;-74
2022/03/18 00:57:28;;;;;;;;;26.75;24.50;;;;;10.41;53.84;103202.41;5057698;28;45340;-74
2022/03/18 00:59:54;;;;;;;;;34.00;23.00;;;;;10.34;54.16;103184.66;5057557;28;45974;-73
2022/03/18 01:02:19;;;;;;;;;28.50;24.50;;;;;10.41;53.80;103194.56;5073524;28;45299;-74
2022/03/18 01:04:45;;;;;;;;;30.00;25.25;;;;;10.68;53.76;103238.47;5057802;28;45349;-74
2022/03/18 01:07:11;;;;;;;;;27.50;26.00;;;;;10.28;53.71;103171.28;5058157;28;45402;-76
2022/03/18 01:09:36;;;;;;;;;28.50;26.00;;;;;10.64;53.84;103244.44;5057975;28;46175;-74
2022/03/18 01:12:04;;;;;;;;;27.25;25.75;;;;;10.51;53.95;103225.59;5057669;28;45357;-74
2022/03/18 01:14:30;;;;;;;;;34.00;24.50;;;;;10.50;54.15;103231.63;5057786;28;45568;-74
2022/03/18 01:16:56;;;;;;;;;30.75;25.00;;;;;10.56;54.18;103244.13;5057861;28;45398;-75
2022/03/18 01:19:21;;;;;;;;;33.50;26.75;;;;;10.53;53.99;103236.09;5057520;28;45512;-75
2022/03/18 01:21:47;;;;;;;;;27.00;22.00;;;;;10.42;54.00;103217.34;5057761;28;45577;-74
2022/03/18 01:24:13;;;;;;;;;27.50;24.75;;;;;10.52;54.15;103250.94;5055342;28;45459;-74
2022/03/18 01:26:39;;;;;;;;;30.50;25.00;;;;;10.55;53.94;103247.56;5057762;28;45381;-73
2022/03/18 01:29:05;;;;;;;;;28.75;24.75;;;;;10.56;53.93;103255.50;5057329;28;46162;-73
2022/03/18 01:31:31;;;;;;;;;30.50;27.25;;;;;10.47;54.03;103242.00;5057794;28;45441;-76
2022/03/18 01:33:56;;;;;;;;;32.50;25.50;;;;;10.56;53.87;103254.59;5058266;28;45375;-73
2022/03/18 01:36:22;;;;;;;;;32.75;28.00;;;;;10.31;54.14;103206.38;5057945;28;45311;-74
2022/03/18 01:38:48;;;;;;;;;25.50;24.00;;;;;10.55;54.10;103255.41;5058956;28;45951;-73
2022/03/18 01:41:14;;;;;;;;;28.25;25.50;;;;;10.46;53.93;103239.28;5055793;28;45237;-75
2022/03/18 01:43:42;;;;;;;;;30.25;27.00;;;;;10.40;53.67;103238.22;5057180;28;45510;-74
2022/03/18 01:46:08;;;;;;;;;30.50;28.50;;;;;10.17;54.23;103189.16;5056062;28;45493;-74
2022/03/18 01:48:35;;;;;;;;;27.75;25.00;;;;;10.47;53.86;103238.50;5060079;28;45473;-73
2022/03/18 01:51:02;;;;;;;;;31.25;27.00;;;;;10.36;54.42;103241.53;5057188;28;45560;-71
2022/03/18 01:53:28;;;;;;;;;36.75;32.00;;;;;9.91;54.39;103182.78;5057222;28;45300;-76
2022/03/18 01:55:55;;;;;;;;;31.25;27.25;;;;;10.01;54.54;103192.81;5039312;28;45364;-76
2022/03/18 01:58:22;;;;;;;;;33.75;29.25;;;;;10.21;54.53;103237.34;5057219;28;46261;-75
2022/03/18 02:00:48;;;;;;;;;27.75;24.75;;;;;10.24;54.16;103237.47;5056835;28;45498;-76
2022/03/18 02:03:14;;;;;;;;;35.00;29.00;;;;;10.09;54.33;103215.00;5055086;28;45440;-73
2022/03/18 02:05:40;;;;;;;;;27.25;25.00;;;;;10.22;54.39;103234.75;5057419;28;46217;-73
2022/03/18 02:08:08;;;;;;;;;27.75;25.00;;;;;10.08;54.52;103207.97;5057292;28;45558;-75
2022/03/18 02:10:34;;;;;;;;;27.25;26.50;;;;;10.16;54.51;103226.66;5056789;28;45399;-74
2022/03/18 02:13:00;;;;;;;;;28.25;26.00;;;;;10.21;54.52;103221.63;5055522;28;45653;-72
2022/03/18 02:15:26;;;;;;;;;30.75;25.75;;;;;10.27;54.41;103245.44;5029630;28;45636;-74
2022/03/18 02:17:51;;;;;;;;;28.50;26.75;;;;;10.30;54.10;103249.13;5018764;28;46453;-75
2022/03/18 02:20:17;;;;;;;;;26.75;25.50;;;;;10.17;54.58;103223.19;5036628;28;45418;-73
2022/03/18 02:22:43;;;;;;;;;32.50;24.75;;;;;10.17;54.60;103231.94;5036572;28;45565;-73
2022/03/18 02:25:09;;;;;;;;;32.00;28.25;;;;;10.24;54.52;103240.97;5018773;28;45497;-72
2022/03/18 02:27:38;;;;;;;;;36.75;30.75;;;;;10.32;54.70;103265.81;5036285;28;45396;-73
2022/03/18 02:30:06;;;;;;;;;34.00;30.00;;;;;10.24;54.43;103248.81;5036322;28;45482;-74
2022/03/18 02:32:32;;;;;;;;;25.00;23.75;;;;;10.34;54.50;103260.63;5036457;28;46036;-74
2022/03/18 02:34:57;;;;;;;;;30.75;27.75;;;;;10.29;54.16;103247.31;5035890;28;45668;-72
2022/03/18 02:37:23;;;;;;;;;35.75;23.00;;;;;10.17;54.22;103231.06;5036198;28;45518;-73
2022/03/18 02:39:49;;;;;;;;;31.25;26.25;;;;;10.34;53.78;103261.50;5037405;28;45319;-72
2022/03/18 02:42:15;;;;;;;;;34.25;27.75;;;;;10.34;54.31;103260.63;5036478;28;45561;-73
2022/03/18 02:44:40;;;;;;;;;32.00;29.75;;;;;10.31;54.19;103250.91;5036599;28;45418;-73
2022/03/18 02:47:06;;;;;;;;;32.25;28.75;;;;;9.96;54.20;103189.09;5036199;28;45341;-71
2022/03/18 02:49:32;;;;;;;;;33.00;28.00;;;;;9.96;54.21;103190.00;5018303;28;45375;-73
2022/03/18 02:51:58;;;;;;;;;32.50;29.25;;;;;9.62;54.33;103132.69;5036715;28;45331;-70
2022/03/18 02:54:24;;;;;;;;;30.25;28.75;;;;;9.75;53.97;103171.66;5036939;28;45534;-72
2022/03/18 02:56:49;;;;;;;;;27.50;27.00;;;;;9.94;54.38;103198.63;5036679;28;45626;-71
2022/03/18 02:59:16;;;;;;;;;39.75;32.75;;;;;10.24;54.45;103253.19;5036525;28;45422;-71
2022/03/18 03:01:41;;;;;;;;;33.25;28.50;;;;;9.87;54.31;103201.78;5037018;28;45462;-72
2022/03/18 03:04:07;;;;;;;;;32.75;26.75;;;;;10.09;54.80;103258.63;5037107;28;45477;-72
2022/03/18 03:09:21;;;;;;;;;39.25;31.00;;;;;10.05;54.54;103262.84;5036683;28;45659;-71
2022/03/18 03:11:47;;;;;;;;;36.25;30.00;;;;;10.00;54.58;103259.13;5018294;28;45953;-71
2022/03/18 03:14:16;;;;;;;;;36.00;32.00;;;;;9.80;54.23;103233.75;5036482;28;45514;-73
2022/03/18 03:16:42;;;;;;;;;36.50;29.50;;;;;9.90;54.43;103263.03;5018500;28;47599;-71
2022/03/18 03:19:17;;;;;;;;;39.50;30.75;;;;;9.91;54.53;103263.94;5036818;28;45418;-71
2022/03/18 03:21:43;;;;;;;;;35.25;29.00;;;;;9.93;54.68;103262.28;5018455;28;45475;-73
2022/03/18 03:24:09;;;;;;;;;34.00;29.75;;;;;9.77;54.68;103239.75;5018586;28;45416;-73
2022/03/18 03:26:38;;;;;;;;;31.25;29.50;;;;;9.97;54.63;103269.47;5036235;28;45958;-70
2022/03/18 03:29:04;;;;;;;;;39.25;32.25;;;;;9.99;54.60;103278.28;5036344;28;45384;-73
2022/03/18 03:31:30;;;;;;;;;37.00;28.50;;;;;10.01;54.53;103286.19;5036710;28;45330;-72
2022/03/18 03:33:56;;;;;;;;;36.00;31.00;;;;;9.99;54.63;103294.00;5037325;28;45438;-74
2022/03/18 03:36:23;;;;;;;;;35.50;32.75;;;;;9.33;54.16;103179.34;5018265;28;45449;-72
2022/03/18 03:38:58;;;;;;;;;34.00;27.75;;;;;9.57;54.49;103215.31;5018410;28;45400;-71
2022/03/18 03:41:24;;;;;;;;;33.50;31.00;;;;;9.75;54.55;103250.16;5018713;28;45402;-71
2022/03/18 03:43:50;;;;;;;;;36.50;32.25;;;;;10.00;54.98;103287.91;5036747;28;45542;-70
2022/03/18 03:46:20;;;;;;;;;43.00;33.00;;;;;10.00;54.66;103285.31;5036528;28;45450;-72
2022/03/18 03:48:57;;;;;;;;;39.75;33.00;;;;;10.01;54.59;103281.84;5038182;28;45442;-74
2022/03/18 03:51:27;;;;;;;;;42.25;32.25;;;;;9.92;54.52;103269.25;5021382;28;45475;-72
2022/03/18 03:53:54;;;;;;;;;37.00;30.50;;;;;10.01;54.27;103280.94;5039979;28;45268;-72
2022/03/18 03:56:22;;;;;;;;;40.25;31.75;;;;;10.00;54.36;103281.78;5039024;28;46677;-71
2022/03/18 03:58:49;;;;;;;;;42.00;33.75;;;;;9.98;54.71;103279.97;5039204;28;45411;-73
2022/03/18 04:01:27;;;;;;;;;39.00;32.75;;;;;9.96;54.65;103294.72;5021799;28;45418;-75
2022/03/18 04:04:14;;;;;;;;;40.75;33.75;;;;;9.89;54.27;103276.06;5039786;28;45465;-74
2022/03/18 04:06:56;;;;;;;;;40.50;34.25;;;;;9.95;54.31;103294.69;5038758;28;45575;-74
2022/03/18 04:09:22;;;;;;;;;40.75;32.25;;;;;9.90;54.38;103288.34;5038940;28;45494;-74
2022/03/18 04:11:56;;;;;;;;;47.50;39.75;;;;;9.85;54.38;103288.13;5054547;28;45505;-73
2022/03/18 04:14:23;;;;;;;;;44.25;34.00;;;;;9.94;54.22;103312.09;5060005;28;45451;-72
2022/03/18 04:16:49;;;;;;;;;44.00;35.25;;;;;9.92;54.00;103305.00;5059634;28;46212;-74
2022/03/18 04:19:33;;;;;;;;;43.75;35.00;;;;;9.93;54.18;103304.19;5041729;28;45273;-73
2022/03/18 04:22:12;;;;;;;;;41.00;36.75;;;;;9.92;53.94;103315.50;5042480;28;45506;-73
2022/03/18 04:24:41;;;;;;;;;40.00;32.75;;;;;9.72;53.94;103278.78;5059366;28;45501;-72
2022/03/18 04:27:12;;;;;;;;;39.00;32.50;;;;;9.80;54.12;103293.97;5040965;28;47758;-72
2022/03/18 04:29:44;;;;;;;;;38.25;32.25;;;;;9.84;54.23;103309.00;5059228;28;45382;-73
2022/03/18 04:32:16;;;;;;;;;35.75;31.50;;;;;9.83;54.30;103312.44;5059026;28;45466;-72
2022/03/18 04:34:45;;;;;;;;;33.75;28.75;;;;;9.65;54.07;103286.28;5057988;28;45692;-73
2022/03/18 04:37:11;;;;;;;;;36.00;30.00;;;;;9.74;54.06;103311.16;5058521;28;45319;-74
2022/03/18 04:39:42;;;;;;;;;38.50;31.75;;;;;9.65;53.81;103291.53;5058870;28;46165;-73
2022/03/18 04:42:10;;;;;;;;;36.25;31.25;;;;;9.83;54.20;103328.16;5059060;28;45374;-74
2022/03/18 04:44:37;;;;;;;;;35.25;29.50;;;;;9.75;54.18;103317.28;5041022;28;45570;-71
2022/03/18 04:47:09;;;;;;;;;33.50;30.00;;;;;9.80;53.77;103328.91;5041420;28;47590;-72
2022/03/18 04:49:34;;;;;;;;;32.75;29.50;;;;;9.74;53.70;103334.72;5059565;28;45304;-72
2022/03/18 04:52:00;;;;;;;;;33.25;30.00;;;;;9.59;53.74;103309.59;5041325;28;45391;-74
2022/03/18 04:54:26;;;;;;;;;33.75;27.25;;;;;9.69;53.98;103328.38;5058860;28;45371;-73
2022/03/18 04:59:36;;;;;;;;;32.75;28.50;;;;;9.73;53.67;103332.94;5058748;28;45307;-71
2022/03/18 05:02:03;;;;;;;;;34.25;30.25;;;;;9.44;53.93;103292.31;5059867;28;45327;-72
2022/03/18 05:04:28;;;;;;;;;30.75;26.25;;;;;9.66;53.95;103322.13;5043776;28;45366;-73
2022/03/18 05:07:26;;;;;;;;;30.75;27.25;;;;;9.69;53.80;103337.97;5041475;28;46669;-72
2022/03/18 05:10:05;;;;;;;;;35.25;28.25;;;;;9.67;53.79;103324.78;5057744;28;45508;-73
2022/03/18 05:12:37;;;;;;;;;29.75;27.75;;;;;9.66;53.85;103333.47;5057724;28;45381;-74
2022/03/18 05:15:14;;;;;;;;;;;;;;;;;;;;;
2022/03/18 05:17:56;;;;;;;;;32.00;28.25;;;;;9.63;53.52;103354.25;5058630;28;75533;-69
2022/03/18 05:20:22;;;;;;;;;31.50;28.75;;;;;9.16;53.30;103276.13;5059409;28;45485;-74
2022/03/18 05:22:51;;;;;;;;;31.75;26.50;;;;;9.59;53.47;103357.56;5058791;28;45284;-72
2022/03/18 05:25:17;;;;;;;;;29.00;27.50;;;;;9.58;53.50;103360.09;5058184;28;45226;-75
2022/03/18 05:27:44;;;;;;;;;32.25;25.50;;;;;9.43;53.57;103339.34;5059286;28;45378;-73
2022/03/18 05:30:11;;;;;;;;;34.25;28.00;;;;;9.38;53.57;103341.72;5060770;28;45576;-74
2022/03/18 05:32:37;;;;;;;;;27.00;25.25;;;;;9.38;53.51;103338.22;5063307;28;45774;-75
2022/03/18 05:35:04;;;;;;;;;25.75;24.25;;;;;9.49;53.49;103366.69;5046509;28;45489;-74
2022/03/18 05:37:30;;;;;;;;;24.00;21.75;;;;;9.41;53.71;103356.69;5059760;28;45356;-75
2022/03/18 05:39:56;;;;;;;;;27.75;23.75;;;;;9.41;53.39;103354.06;5058223;28;45344;-74
2022/03/18 05:42:21;;;;;;;;;29.75;23.25;;;;;9.29;53.08;103342.16;5058046;28;45280;-77
2022/03/18 05:44:47;;;;;;;;;28.50;25.50;;;;;9.41;52.98;103362.78;5057855;28;45522;-77
2022/03/18 05:47:13;;;;;;;;;28.00;24.00;;;;;9.48;53.20;103375.34;5057320;28;45461;-74
2022/03/18 05:49:45;;;;;;;;;26.50;23.00;;;;;9.33;53.01;103351.97;5027808;28;45570;-74
2022/03/18 05:52:11;;;;;;;;;26.75;24.25;;;;;9.45;53.02;103367.38;5048271;28;45380;-75
2022/03/18 05:54:37;;;;;;;;;25.25;24.00;;;;;9.08;53.21;103315.84;5046321;28;45474;-74
2022/03/18 05:57:03;;;;;;;;;24.75;23.50;;;;;9.40;53.05;103367.97;5040357;28;46124;-76
2022/03/18 05:59:33;;;;;;;;;26.25;23.00;;;;;9.36;52.85;103360.78;5037354;28;45454;-76
2022/03/18 06:02:00;;;;;;;;;25.75;22.50;;;;;9.43;52.69;103368.13;5050027;28;45336;-75
2022/03/18 06:04:27;;;;;;;;;25.75;21.75;;;;;9.16;52.89;103326.72;5057830;28;45396;-74
2022/03/18 06:06:54;;;;;;;;;25.75;23.75;;;;;9.38;52.83;103362.66;5039269;28;46877;-72
2022/03/18 06:12:05;;;;;;;;;26.25;24.00;;;;;9.37;52.57;103370.41;5058466;28;45370;-71
2022/03/18 06:14:31;;;;;;;;;25.75;22.00;;;;;9.43;52.31;103384.69;5058320;28;45403;-77
2022/03/18 06:17:01;;;;;;;;;31.75;27.25;;;;;9.36;52.10;103377.38;5057577;28;46050;-77
2022/03/18 06:19:28;;;;;;;;;30.50;24.75;;;;;9.27;52.18;103369.06;5057395;28;45555;-74
2022/03/18 06:21:54;;;;;;;;;26.00;22.75;;;;;9.26;52.18;103378.63;5057559;28;45407;-74
2022/03/18 06:24:21;;;;;;;;;32.25;27.00;;;;;9.33;51.67;103393.81;5039802;28;45599;-72
2022/03/18 06:26:48;;;;;;;;;26.00;25.25;;;;;9.24;51.92;103397.69;5058005;28;46166;-72
2022/03/18 06:29:14;;;;;;;;;23.00;21.00;;;;;9.17;52.19;103391.25;5058475;28;45382;-73
2022/03/18 06:31:40;;;;;;;;;28.75;27.00;;;;;9.18;52.03;103395.66;5058493;28;45471;-72
2022/03/18 06:34:07;;;;;;;;;27.25;24.75;;;;;8.97;52.38;103358.88;5039016;28;45595;-72
2022/03/18 06:36:33;;;;;;;;;29.25;25.75;;;;;9.06;52.08;103381.97;5056506;28;46356;-75
2022/03/18 06:38:59;;;;;;;;;30.25;25.00;;;;;8.68;52.00;103333.88;5057178;28;45422;-74
2022/03/18 06:41:25;;;;;;;;;25.25;23.75;;;;;8.64;52.49;103322.38;5057102;28;45986;-72
2022/03/18 06:43:51;;;;;;;;;32.75;28.50;;;;;8.97;52.29;103397.19;5057031;28;45925;-74
2022/03/18 06:46:17;;;;;;;;;29.50;24.50;;;;;8.83;52.38;103379.09;5057103;28;45617;-74
2022/03/18 06:48:43;;;;;;;;;31.25;25.00;;;;;9.04;52.56;103412.34;5056940;28;45601;-75
2022/03/18 06:51:09;;;;;;;;;24.50;21.25;;;;;9.09;52.17;103416.13;5039305;28;45348;-71
2022/03/18 06:53:35;;;;;;;;;28.50;23.50;;;;;8.87;52.26;103367.97;5057137;28;45311;-72
2022/03/18 06:56:02;;;;;;;;;24.50;22.50;;;;;9.00;52.03;103384.28;5056625;28;46242;-71
2022/03/18 06:58:30;;;;;;;;;26.25;26.25;;;;;8.85;52.11;103358.25;5056765;28;45331;-74
2022/03/18 07:00:56;;;;;;;;;35.75;28.00;;;;;8.72;51.58;103356.72;5057494;28;45489;-74
2022/03/18 07:03:21;;;;;;;;;33.25;28.50;;;;;8.66;51.66;103369.47;5058291;28;45379;-74
2022/03/18 07:05:48;;;;;;;;;27.50;27.00;;;;;8.80;51.92;103406.75;5056927;28;46045;-72
2022/03/18 07:08:14;;;;;;;;;31.00;28.25;;;;;8.74;52.21;103401.25;5038568;28;45366;-73
2022/03/18 07:10:40;;;;;;;;;28.50;26.00;;;;;8.71;52.00;103404.59;5056640;28;45543;-74
2022/03/18 07:13:05;;;;;;;;;21.50;20.00;;;;;8.61;51.84;103391.84;5038299;28;45430;-74
2022/03/18 07:15:31;;;;;;;;;31.75;26.00;;;;;8.62;51.61;103420.66;5037723;28;47672;-76
2022/03/18 07:17:59;;;;;;;;;27.25;22.00;;;;;8.54;51.89;103401.06;5055964;28;45208;-74
2022/03/18 07:20:30;;;;;;;;;30.00;27.50;;;;;8.51;51.99;103400.91;5056094;28;45378;-74
2022/03/18 07:23:00;;;;;;;;;29.75;26.25;;;;;8.63;51.96;103412.00;5058726;28;45469;-76
2022/03/18 07:25:26;;;;;;;;;28.25;28.00;;;;;8.57;51.77;103392.53;5059501;28;45550;-73
2022/03/18 07:27:51;;;;;;;;;25.00;21.75;;;;;8.48;51.96;103366.81;5059587;28;45416;-74
2022/03/18 07:30:17;;;;;;;;;27.25;24.00;;;;;8.75;51.55;103408.25;5055231;28;45499;-75
2022/03/18 07:32:42;;;;;;;;;30.25;25.25;;;;;8.76;51.37;103415.28;5060107;28;45563;-74
2022/03/18 07:35:10;;;;;;;;;32.25;26.75;;;;;8.58;51.36;103371.69;5059768;28;46515;-74
2022/03/18 07:37:36;;;;;;;;;31.75;26.50;;;;;8.60;51.13;103369.16;5041302;28;45410;-72
2022/03/18 07:40:05;;;;;;;;;27.50;25.00;;;;;8.74;51.48;103386.44;5058258;28;45339;-76
2022/03/18 07:42:49;;;;;;;;;33.25;26.25;;;;;8.91;51.10;103413.44;5060097;28;45346;-75
2022/03/18 07:45:26;;;;;;;;;32.00;28.00;;;;;8.84;50.88;103390.44;5059527;28;45533;-76
2022/03/18 07:47:52;;;;;;;;;28.50;26.75;;;;;8.97;51.05;103405.03;5059453;28;45407;-74
2022/03/18 07:50:23;;;;;;;;;29.00;28.00;;;;;9.09;51.02;103413.50;5059425;28;45350;-76
2022/03/18 07:52:51;;;;;;;;;29.00;26.25;;;;;9.20;50.80;103417.53;5057905;28;45420;-75
2022/03/18 07:55:21;;;;;;;;;33.50;30.25;;;;;9.24;50.35;103414.28;5047066;28;45429;-73
2022/03/18 07:57:48;;;;;;;;;27.00;24.75;;;;;9.36;50.50;103414.00;5038732;28;45232;-75
2022/03/18 08:00:15;;;;;;;;;27.75;23.00;;;;;9.51;50.13;103406.88;5059796;28;45502;-76
2022/03/18 08:02:42;;;;;;;;;30.50;28.25;;;;;9.36;49.59;103359.06;5059599;28;45388;-73
2022/03/18 08:05:09;;;;;;;;;27.25;26.00;;;;;9.42;49.83;103356.75;5059274;28;45780;-76
2022/03/18 08:07:36;;;;;;;;;31.25;26.25;;;;;9.87;49.49;103409.50;5059331;28;45528;-75
2022/03/18 08:10:03;;;;;;;;;32.75;26.50;;;;;9.81;49.51;103376.91;5059569;28;45240;-75
2022/03/18 08:12:29;;;;;;;;;25.75;24.25;;;;;9.68;49.16;103350.16;5059591;28;45405;-75
2022/03/18 08:14:57;;;;;;;;;28.25;25.75;;;;;9.97;48.86;103393.41;5059584;28;45790;-77
2022/03/18 08:17:24;;;;;;;;;21.50;21.50;;;;;10.24;48.65;103415.56;5058609;28;45311;-77
2022/03/18 08:19:51;;;;;;;;;21.25;20.50;;;;;9.92;48.38;103339.94;5059507;28;45331;-76
2022/03/18 08:22:20;;;;;;;;;28.50;21.75;;;;;10.42;47.77;103421.69;5058163;28;45499;-75
2022/03/18 08:24:46;;;;;;;;;31.25;26.75;;;;;10.45;47.48;103421.81;5041399;28;46167;-77
2022/03/18 08:27:12;;;;;;;;;29.00;27.00;;;;;10.46;47.04;103425.34;5059553;28;45387;-76
2022/03/18 08:29:38;;;;;;;;;32.75;26.75;;;;;10.50;47.28;103422.03;5058912;28;45319;-78
2022/03/18 08:32:08;;;;;;;;;28.50;25.25;;;;;10.43;46.96;103405.13;5058876;28;45386;-76
2022/03/18 08:34:34;;;;;;;;;28.50;24.50;;;;;10.61;46.81;103419.06;5058647;28;45450;-78
2022/03/18 08:37:00;;;;;;;;;33.50;26.75;;;;;10.52;46.97;103397.69;5058893;28;45449;-76
2022/03/18 08:39:26;;;;;;;;;29.75;28.50;;;;;10.71;46.28;103429.97;5059055;28;45451;-75
2022/03/18 08:41:51;;;;;;;;;25.25;22.50;;;;;10.56;46.53;103393.50;5058934;28;45633;-75
2022/03/18 08:44:19;;;;;;;;;29.00;24.25;;;;;10.67;45.92;103396.56;5058506;28;45403;-75
2022/03/18 08:46:48;;;;;;;;;30.00;24.75;;;;;10.24;45.88;103321.28;5058447;28;45738;-75
2022/03/18 08:49:14;;;;;;;;;28.50;24.00;;;;;10.77;45.96;103389.19;5058262;28;45410;-75
2022/03/18 08:51:40;;;;;;;;;23.75;23.00;;;;;10.91;45.80;103408.13;5058327;28;45848;-74
2022/03/18 08:54:05;;;;;;;;;31.00;26.25;;;;;10.82;45.61;103387.66;5056886;28;45442;-75
2022/03/18 08:56:32;;;;;;;;;26.00;21.75;;;;;11.00;45.19;103395.41;5056954;28;45513;-76
2022/03/18 08:58:58;;;;;;;;;22.25;20.00;;;;;10.90;45.27;103350.41;5057066;28;45311;-75
2022/03/18 09:01:25;;;;;;;;;25.50;23.25;;;;;11.43;44.53;103422.56;5058942;28;45408;-73
2022/03/18 09:03:51;;;;;;;;;35.00;24.25;;;;;11.43;44.22;103418.19;5059008;28;45276;-75
2022/03/18 09:06:18;;;;;;;;;29.25;24.75;;;;;11.48;43.93;103412.25;5059826;28;45542;-76
2022/03/18 09:08:44;;;;;;;;;26.25;22.75;;;;;11.56;44.26;103400.34;5058996;28;45396;-75
2022/03/18 09:11:10;;;;;;;;;23.00;21.25;;;;;11.50;43.33;103358.09;5057903;28;45343;-73
2022/03/18 09:13:36;;;;;;;;;17.25;15.25;;;;;11.88;42.70;103414.78;5057709;28;45485;-75
2022/03/18 09:16:04;;;;;;;;;25.25;23.00;;;;;11.73;41.81;103385.28;5057262;28;45548;-74
2022/03/18 09:18:30;;;;;;;;;30.75;25.75;;;;;11.75;41.58;103380.97;5057988;28;45399;-77
2022/03/18 09:20:56;;;;;;;;;22.50;21.50;;;;;11.92;41.25;103423.69;5040082;28;45451;-74
2022/03/18 09:23:21;;;;;;;;;24.00;22.50;;;;;11.80;41.05;103397.81;5057185;28;45465;-75
2022/03/18 09:25:47;;;;;;;;;22.25;18.50;;;;;11.59;41.50;103361.09;5057810;28;45327;-74
2022/03/18 09:28:13;;;;;;;;;3.75;3.75;;;;;11.82;40.71;103398.75;5057046;28;45353;-74
2022/03/18 09:30:39;;;;;;;;;22.00;18.75;;;;;11.82;39.63;103391.78;5057625;28;45359;-74
2022/03/18 09:33:05;;;;;;;;;21.75;20.50;;;;;11.91;39.00;103393.00;5057837;28;46036;-74
2022/03/18 09:35:30;;;;;;;;;23.75;21.50;;;;;11.90;39.54;103396.47;5056381;28;45722;-73
2022/03/18 09:37:56;;;;;;;;;23.50;21.25;;;;;11.83;38.43;103377.78;5059056;28;45319;-76
2022/03/18 09:40:22;;;;;;;;;22.50;16.00;;;;;12.03;37.70;103432.84;5059422;28;45373;-74
2022/03/18 09:42:59;;;;;;;;;21.00;17.25;;;;;12.04;37.56;103409.28;5060432;28;46187;-74
2022/03/18 09:45:31;;;;;;;;;17.25;17.25;;;;;12.10;38.17;103392.84;5056694;28;45433;-74
2022/03/18 09:48:01;;;;;;;;;21.00;18.75;;;;;12.40;38.25;103429.03;5057839;28;45458;-74
2022/03/18 09:50:30;;;;;;;;;19.00;15.75;;;;;12.02;37.38;103337.41;5039768;28;45267;-75
2022/03/18 09:52:56;;;;;;;;;19.00;17.00;;;;;12.38;36.51;103381.66;5057361;28;46209;-74
2022/03/18 09:55:22;;;;;;;;;18.00;14.00;;;;;12.15;36.99;103324.72;5057535;28;45437;-75
2022/03/18 09:57:48;;;;;;;;;20.25;18.00;;;;;12.83;36.88;103417.44;5039727;28;45597;-77
2022/03/18 10:00:15;;;;;;;;;24.00;20.75;;;;;12.89;36.47;103396.63;5058095;28;45538;-75
2022/03/18 10:02:41;;;;;;;;;17.50;17.50;;;;;12.31;35.99;103319.19;5057652;28;45595;-75
2022/03/18 10:05:14;;;;;;;;;26.00;21.00;;;;;12.46;35.96;103335.53;5039323;28;45606;-74
2022/03/18 10:07:52;;;;;;;;;21.50;17.00;;;;;12.83;35.38;103401.66;5054538;28;45268;-73
2022/03/18 10:10:19;;;;;;;;;19.25;17.50;;;;;12.68;35.45;103360.84;5055960;28;45513;-74
2022/03/18 10:12:47;;;;;;;;;14.50;14.00;;;;;13.11;34.92;103424.56;5053365;28;45428;-73
2022/03/18 10:15:27;;;;;;;;;21.50;15.50;;;;;13.30;34.67;103427.00;5056568;28;45548;-72
2022/03/18 10:17:55;;;;;;;;;18.50;14.50;;;;;13.45;34.53;103408.19;5055144;28;45499;-72
2022/03/18 10:20:24;;;;;;;;;18.25;15.00;;;;;13.49;33.49;103414.47;5054903;28;45437;-73
2022/03/18 10:22:51;;;;;;;;;14.50;13.00;;;;;13.00;32.86;103329.47;5047590;28;45537;-74
2022/03/18 10:25:46;;;;;;;;;13.25;13.25;;;;;13.48;33.58;103425.84;5055393;28;45605;-76
2022/03/18 10:28:11;;;;;;;;;15.00;12.50;;;;;13.41;33.41;103377.38;5055154;28;45494;-75
2022/03/18 10:30:37;;;;;;;;;14.25;13.25;;;;;13.24;33.04;103323.22;5055204;28;45408;-75
2022/03/18 10:33:05;;;;;;;;;16.00;12.00;;;;;13.39;32.80;103322.88;5055879;28;45467;-76
2022/03/18 10:38:47;;;;;;;;;13.50;12.00;;;;;13.88;31.44;103333.19;5056998;28;45485;-76
2022/03/18 10:41:24;;;;;;;;;14.25;11.50;;;;;14.44;30.70;103393.66;5041886;28;45514;-74
2022/03/18 10:43:55;;;;;;;;;12.25;8.75;;;;;14.18;31.38;103348.97;5052799;28;46163;-75
2022/03/18 10:46:22;;;;;;;;;14.00;14.00;;;;;14.38;31.23;103378.56;5054301;28;45585;-76
2022/03/18 10:49:04;;;;;;;;;16.25;11.25;;;;;14.70;30.99;103390.88;5055436;28;45401;-73
2022/03/18 10:51:30;;;;;;;;;16.00;11.00;;;;;14.84;30.00;103394.78;5035155;28;45544;-73
2022/03/18 10:53:57;;;;;;;;;15.25;14.25;;;;;14.84;29.50;103378.94;5056251;28;45447;-76
2022/03/18 10:56:23;;;;;;;;;13.00;12.25;;;;;15.04;29.02;103404.13;5057570;28;45437;-73
2022/03/18 10:58:48;;;;;;;;;18.50;12.75;;;;;14.50;28.30;103316.44;5055490;28;45406;-76
2022/03/18 11:01:17;;;;;;;;;11.50;11.00;;;;;15.03;28.04;103390.88;5058306;28;45378;-77
2022/03/18 11:03:45;;;;;;;;;11.75;10.00;;;;;15.06;27.59;103383.03;5038417;28;47451;-75
2022/03/18 11:06:11;;;;;;;;;11.25;9.50;;;;;15.14;27.50;103365.66;5059402;28;45549;-75
2022/03/18 11:08:48;;;;;;;;;10.50;9.75;;;;;15.82;27.99;103380.47;5039770;28;45611;-75
2022/03/18 11:11:18;;;;;;;;;15.75;10.75;;;;;16.35;26.43;103301.41;5056282;28;46636;-73
2022/03/18 11:14:06;;;;;;;;;17.50;12.00;;;;;17.83;24.88;103364.75;5058666;28;46226;-73
2022/03/18 11:16:38;;;;;;;;;9.00;8.33;;;;;18.27;24.68;103314.00;5059034;28;45899;-73
2022/03/18 11:19:08;;;;;;;;;8.67;8.67;;;;;19.25;24.86;103368.06;5059659;28;45803;-74
2022/03/18 11:21:40;;;;;;;;;11.67;11.00;;;;;19.12;22.73;103268.78;5058426;28;45506;-74
2022/03/18 11:24:12;;;;;;;;;11.00;8.33;;;;;19.57;24.16;103331.06;5058502;28;45529;-73
2022/03/18 11:26:48;;;;;;;;;7.00;7.00;;;;;20.26;23.94;103375.75;5057766;28;45545;-73
2022/03/18 11:29:23;;;;;;;;;8.00;6.67;;;;;20.48;25.01;103347.44;5059121;28;45317;-74
2022/03/18 11:32:14;;;;;;;;;8.67;7.00;;;;;20.82;25.57;103351.06;5060265;28;45236;-74